createdAt,value
2022-09-07T00:09:12.268Z,7175.97705
2022-09-07T00:24:14.552Z,6739.68945
2022-09-07T00:39:17.187Z,2912.5813
2022-09-07T00:54:19.513Z,994.83234
2022-09-07T01:09:21.803Z,819.83771
2022-09-07T01:24:24.033Z,653.23328
2022-09-07T01:39:26.323Z,460.25977
2022-09-07T01:54:28.608Z,276.87503
2022-09-07T02:09:30.812Z,152.22133
2022-09-07T02:24:33.058Z,51.53951
2022-09-07T02:39:35.710Z,7.19156
2022-09-07T02:54:38.032Z,0
2022-09-07T03:09:40.261Z,0
2022-09-07T03:24:42.495Z,0
2022-09-07T03:39:44.898Z,0
2022-09-07T03:54:47.357Z,0
2022-09-07T04:09:49.607Z,0
2022-09-07T04:24:51.874Z,0
2022-09-07T04:39:54.211Z,0
2022-09-07T04:54:56.548Z,0
2022-09-07T05:09:58.737Z,0
2022-09-07T05:25:00.952Z,0
2022-09-07T05:40:03.287Z,0
2022-09-07T05:55:28.129Z,0
2022-09-07T06:10:45.971Z,0
2022-09-07T06:25:48.271Z,0
2022-09-07T06:40:50.674Z,0
2022-09-07T06:55:53.056Z,0
2022-09-07T07:10:55.290Z,0
2022-09-07T07:25:57.564Z,0
2022-09-07T07:56:32.153Z,0
2022-09-07T08:11:34.512Z,0
2022-09-07T08:26:36.750Z,0
2022-09-07T08:41:38.955Z,0
2022-09-07T08:57:20.428Z,0
2022-09-07T09:12:23.247Z,0
2022-09-07T09:27:25.428Z,0
2022-09-07T09:42:27.858Z,0
2022-09-07T09:57:30.107Z,0
2022-09-07T10:12:32.323Z,0
2022-09-07T10:27:34.584Z,0
2022-09-07T10:42:36.864Z,0
2022-09-07T10:57:39.280Z,0
2022-09-07T11:12:41.670Z,0
2022-09-07T11:27:43.854Z,0
2022-09-07T11:42:46.087Z,0
2022-09-07T11:57:52.384Z,0
2022-09-07T12:12:57.175Z,0
2022-09-07T12:27:59.417Z,0
2022-09-07T12:43:09.527Z,0
2022-09-07T12:58:12.352Z,7.19156
2022-09-07T13:13:14.657Z,49.14232
2022-09-07T13:28:17.257Z,166.60445
2022-09-07T13:43:19.484Z,369.16669
2022-09-07T13:58:21.702Z,608.88531
2022-09-07T14:13:23.936Z,753.9151
2022-09-07T14:28:26.421Z,2797.51636
2022-09-07T14:43:28.592Z,6184.74072
2022-09-07T14:58:31.220Z,7599.08057
2022-09-07T15:13:33.708Z,15359.9707
2022-09-07T15:44:08.485Z,1457.48926
2022-09-07T15:59:10.735Z,1531.802
2022-09-07T16:14:12.953Z,2011.23926
2022-09-07T16:29:15.299Z,2019.62939
2022-09-07T16:44:17.511Z,1787.10242
2022-09-07T16:59:19.743Z,1438.31177
2022-09-07T17:14:21.937Z,1312.45947
2022-09-07T17:29:24.166Z,1775.11646
2022-09-07T17:44:26.413Z,1914.1532
2022-09-07T18:15:01.323Z,2282.12134
2022-09-07T18:30:03.630Z,2325.27075
2022-09-07T18:45:28.978Z,1821.86157
2022-09-07T19:00:31.499Z,3514.27515
2022-09-07T19:15:36.828Z,3734.81616
2022-09-07T19:30:39.832Z,2896.99951
2022-09-07T19:45:42.085Z,4437.19189
2022-09-07T20:00:44.330Z,4670.91748
2022-09-07T20:15:46.674Z,3308.11719
2022-09-07T20:30:54.001Z,2647.69214
2022-09-07T20:45:56.191Z,2378.00879
2022-09-07T21:00:58.453Z,2751.96997
2022-09-07T21:16:00.777Z,3719.23462
2022-09-07T21:31:03.068Z,2633.30908
2022-09-07T21:46:08.012Z,3493.89893
2022-09-07T22:01:11.056Z,2843.06299
2022-09-07T22:16:13.344Z,2404.37793
2022-09-07T22:31:15.751Z,3103.15771
2022-09-07T22:46:18.175Z,3694.06396
2022-09-07T23:01:20.572Z,3604.16968
2022-09-07T23:16:22.840Z,3284.14526
2022-09-07T23:31:25.341Z,3135.51978
2022-09-07T23:46:27.716Z,3131.92383
